createdAt,value
2019-01-08T00:01:57.522Z,90.20
2019-01-08T00:04:28.036Z,90.00
2019-01-08T00:06:58.538Z,89.50
2019-01-08T00:09:29.065Z,90.00
2019-01-08T00:11:59.606Z,89.90
2019-01-08T00:14:30.104Z,89.50
2019-01-08T00:17:00.625Z,89.70
2019-01-08T00:19:32.187Z,89.70
2019-01-08T00:22:02.683Z,89.50
2019-01-08T00:24:33.222Z,89.80
2019-01-08T00:27:03.743Z,90.00
2019-01-08T00:29:34.276Z,90.00
2019-01-08T00:32:04.779Z,90.00
2019-01-08T00:34:35.306Z,90.00
2019-01-08T00:37:05.805Z,90.10
2019-01-08T00:39:36.335Z,90.10
2019-01-08T00:42:06.818Z,90.20
2019-01-08T00:44:37.347Z,90.20
2019-01-08T00:47:07.839Z,90.10
2019-01-08T00:49:38.347Z,90.00
2019-01-08T00:52:08.838Z,90.20
2019-01-08T00:54:39.382Z,90.60
2019-01-08T00:57:09.873Z,90.70
2019-01-08T00:59:40.394Z,90.90
2019-01-08T01:02:10.883Z,91.00
2019-01-08T01:04:43.036Z,91.00
2019-01-08T01:07:13.542Z,90.90
2019-01-08T01:09:44.143Z,91.00
2019-01-08T01:12:14.701Z,90.90
2019-01-08T01:14:45.508Z,90.90
2019-01-08T01:17:15.990Z,90.90
2019-01-08T01:19:46.533Z,90.90
2019-01-08T01:22:17.031Z,91.00
2019-01-08T01:24:47.560Z,91.10
2019-01-08T01:27:18.052Z,91.00
2019-01-08T01:29:48.574Z,91.10
2019-01-08T01:32:19.058Z,91.00
2019-01-08T01:34:49.587Z,90.90
2019-01-08T01:37:20.103Z,91.00
2019-01-08T01:39:50.643Z,91.10
2019-01-08T01:42:21.121Z,91.10
2019-01-08T01:44:51.655Z,91.10
2019-01-08T01:47:22.191Z,91.20
2019-01-08T01:49:52.680Z,91.20
2019-01-08T01:52:23.214Z,91.20
2019-01-08T01:54:53.751Z,90.90
2019-01-08T01:57:24.282Z,90.60
2019-01-08T01:59:54.815Z,90.50
2019-01-08T02:02:25.440Z,90.50
2019-01-08T02:04:56.700Z,90.50
2019-01-08T02:07:27.228Z,90.50
2019-01-08T02:09:57.728Z,90.30
2019-01-08T02:12:29.791Z,90.20
2019-01-08T02:15:00.284Z,90.10
2019-01-08T02:17:30.804Z,90.20
2019-01-08T02:20:01.967Z,90.30
2019-01-08T02:22:32.493Z,90.60
2019-01-08T02:25:02.980Z,90.60
2019-01-08T02:27:33.500Z,90.70
2019-01-08T02:30:05.397Z,90.90
2019-01-08T02:32:38.624Z,90.70
2019-01-08T02:35:13.105Z,90.50
2019-01-08T02:37:43.648Z,90.70
2019-01-08T02:40:14.158Z,90.70
2019-01-08T02:42:44.694Z,90.50
2019-01-08T02:45:15.184Z,90.50
2019-01-08T02:47:45.705Z,90.70
2019-01-08T02:50:16.213Z,90.70
2019-01-08T02:52:46.729Z,90.80
2019-01-08T02:55:17.230Z,90.70
2019-01-08T02:57:47.755Z,90.70
2019-01-08T03:00:18.280Z,90.70
2019-01-08T03:02:48.775Z,90.70
2019-01-08T03:05:19.299Z,90.50
2019-01-08T03:07:49.834Z,90.60
2019-01-08T03:10:20.316Z,90.50
2019-01-08T03:12:50.830Z,90.40
2019-01-08T03:15:21.322Z,90.50
2019-01-08T03:17:51.845Z,90.30
2019-01-08T03:20:22.376Z,90.30
2019-01-08T03:22:52.867Z,90.30
2019-01-08T03:25:23.391Z,90.40
2019-01-08T03:27:53.901Z,90.10
2019-01-08T03:30:24.426Z,90.30
2019-01-08T03:32:54.903Z,90.60
2019-01-08T03:35:25.417Z,90.80
2019-01-08T03:37:55.912Z,90.90
2019-01-08T03:40:26.430Z,91.00
2019-01-08T03:42:56.951Z,90.90
2019-01-08T03:45:27.458Z,91.20
2019-01-08T03:47:57.976Z,91.30
2019-01-08T03:50:28.494Z,91.20
2019-01-08T03:52:59.009Z,91.10
2019-01-08T03:55:29.536Z,90.90
2019-01-08T03:58:00.061Z,90.90
2019-01-08T04:00:30.550Z,91.10
2019-01-08T04:03:01.094Z,91.30
2019-01-08T04:05:31.586Z,91.60
2019-01-08T04:08:02.120Z,92.00
2019-01-08T04:10:32.611Z,92.00
2019-01-08T04:13:03.138Z,91.90
2019-01-08T04:15:33.627Z,91.80
2019-01-08T04:18:04.152Z,91.80
2019-01-08T04:20:34.690Z,92.10
2019-01-08T04:23:05.199Z,92.20
2019-01-08T04:25:35.753Z,92.30
2019-01-08T04:28:06.261Z,92.60
2019-01-08T04:30:36.790Z,92.60
2019-01-08T04:33:07.280Z,92.50
2019-01-08T04:35:37.806Z,92.50
2019-01-08T04:38:08.337Z,92.70
2019-01-08T04:40:38.829Z,92.80
2019-01-08T04:43:09.356Z,92.60
2019-01-08T04:45:39.873Z,92.70
2019-01-08T04:48:10.387Z,92.80
2019-01-08T04:50:40.913Z,92.80
2019-01-08T04:53:11.425Z,92.90
2019-01-08T04:55:41.927Z,92.80
2019-01-08T04:58:12.456Z,92.90
2019-01-08T05:00:42.965Z,93.00
2019-01-08T05:03:13.483Z,92.90
2019-01-08T05:05:43.975Z,92.70
2019-01-08T05:08:14.501Z,92.70
2019-01-08T05:10:45.032Z,92.80
2019-01-08T05:13:15.616Z,92.90
2019-01-08T05:15:46.130Z,93.10
2019-01-08T05:18:16.626Z,93.20
2019-01-08T05:20:47.140Z,93.80
2019-01-08T05:23:17.668Z,94.10
2019-01-08T05:25:48.201Z,93.90
2019-01-08T05:28:18.692Z,94.20
2019-01-08T05:30:49.219Z,94.20
2019-01-08T05:33:19.831Z,94.40
2019-01-08T05:35:50.324Z,94.40
2019-01-08T05:38:20.838Z,94.50
2019-01-08T05:40:51.343Z,94.70
2019-01-08T05:43:21.884Z,94.70
2019-01-08T05:45:52.434Z,94.80
2019-01-08T05:48:23.011Z,94.90
2019-01-08T05:50:53.713Z,95.10
2019-01-08T05:53:24.214Z,95.30
2019-01-08T05:55:54.754Z,95.50
2019-01-08T05:58:27.479Z,95.40
2019-01-08T06:00:58.029Z,95.70
2019-01-08T06:03:28.599Z,95.70
2019-01-08T06:05:59.103Z,95.80
2019-01-08T06:08:29.632Z,95.90
2019-01-08T06:11:00.137Z,96.00
2019-01-08T06:13:30.666Z,96.10
2019-01-08T06:16:01.224Z,96.10
2019-01-08T06:18:31.725Z,96.00
2019-01-08T06:21:02.229Z,96.00
2019-01-08T06:23:32.823Z,95.80
2019-01-08T06:26:03.337Z,95.70
2019-01-08T06:28:33.856Z,95.60
2019-01-08T06:31:04.394Z,95.60
2019-01-08T06:33:34.893Z,95.60
2019-01-08T06:36:06.958Z,95.50
2019-01-08T06:38:37.461Z,95.40
2019-01-08T06:41:07.999Z,95.60
2019-01-08T06:43:38.497Z,95.70
2019-01-08T06:46:09.041Z,95.70
2019-01-08T06:48:39.562Z,95.70
2019-01-08T06:51:10.204Z,95.60
2019-01-08T06:53:41.086Z,95.40
2019-01-08T06:56:11.998Z,95.40
2019-01-08T06:58:42.527Z,95.60
2019-01-08T07:01:13.059Z,95.80
2019-01-08T07:03:43.578Z,96.00
2019-01-08T07:06:14.082Z,96.00
2019-01-08T07:08:44.571Z,96.00
2019-01-08T07:11:15.115Z,96.00
2019-01-08T07:13:47.972Z,96.10
2019-01-08T07:16:18.557Z,96.00
2019-01-08T07:18:49.104Z,95.80
2019-01-08T07:21:20.456Z,95.80
2019-01-08T07:23:50.990Z,95.80
2019-01-08T07:26:21.936Z,95.80
2019-01-08T07:28:52.443Z,95.80
2019-01-08T07:31:23.531Z,95.80
2019-01-08T07:33:54.035Z,95.80
2019-01-08T07:36:24.576Z,95.80
2019-01-08T07:38:55.095Z,95.90
2019-01-08T07:41:25.588Z,95.90
2019-01-08T07:43:56.116Z,96.00
2019-01-08T07:46:28.098Z,95.80
2019-01-08T07:48:58.610Z,95.90
2019-01-08T07:51:29.137Z,96.10
2019-01-08T07:53:59.718Z,96.20
2019-01-08T07:56:30.246Z,96.10
2019-01-08T07:59:00.778Z,96.00
2019-01-08T08:01:31.296Z,96.00
2019-01-08T08:04:01.780Z,95.90
2019-01-08T08:06:32.316Z,95.60
2019-01-08T08:09:03.286Z,95.50
2019-01-08T08:11:33.805Z,95.90
2019-01-08T08:14:04.343Z,95.90
2019-01-08T08:16:34.875Z,95.80
2019-01-08T08:19:05.378Z,95.90
2019-01-08T08:21:38.265Z,95.90
2019-01-08T08:24:08.786Z,95.90
2019-01-08T08:26:39.327Z,95.90
2019-01-08T08:29:09.852Z,96.00
2019-01-08T08:31:40.387Z,96.20
2019-01-08T08:34:10.875Z,96.20
2019-01-08T08:36:41.414Z,96.30
2019-01-08T08:39:11.900Z,96.20
2019-01-08T08:41:42.415Z,96.30
2019-01-08T08:44:12.932Z,96.40
2019-01-08T08:46:43.474Z,96.20
2019-01-08T08:49:13.971Z,96.00
2019-01-08T08:51:44.493Z,96.00
2019-01-08T08:54:14.993Z,96.00
2019-01-08T08:56:45.591Z,96.50
2019-01-08T08:59:16.096Z,96.10
2019-01-08T09:01:46.603Z,96.20
2019-01-08T09:04:17.123Z,96.20
2019-01-08T09:06:47.635Z,96.40
2019-01-08T09:09:18.171Z,96.60
2019-01-08T09:11:50.315Z,97.00
2019-01-08T09:14:20.845Z,96.80
2019-01-08T09:16:51.332Z,96.70
2019-01-08T09:19:21.861Z,96.60
2019-01-08T09:21:52.393Z,96.40
2019-01-08T09:24:22.919Z,96.40
2019-01-08T09:26:53.484Z,96.40
2019-01-08T09:29:24.019Z,96.30
2019-01-08T09:31:54.514Z,96.20
2019-01-08T09:34:25.023Z,96.20
2019-01-08T09:36:58.587Z,96.30
2019-01-08T09:39:33.805Z,96.30
2019-01-08T09:42:04.491Z,96.40
2019-01-08T09:44:35.028Z,96.50
2019-01-08T09:47:05.550Z,96.60
2019-01-08T09:49:37.581Z,96.80
2019-01-08T09:52:10.424Z,96.80
2019-01-08T09:54:40.917Z,96.90
2019-01-08T09:57:11.447Z,96.80
2019-01-08T09:59:41.966Z,96.80
2019-01-08T10:02:12.458Z,96.80
2019-01-08T10:04:42.995Z,96.80
2019-01-08T10:07:13.477Z,97.00
2019-01-08T10:09:44.007Z,97.20
2019-01-08T10:12:14.512Z,97.30
2019-01-08T10:14:45.027Z,97.40
2019-01-08T10:17:15.539Z,97.80
2019-01-08T10:19:46.051Z,97.50
2019-01-08T10:22:16.563Z,97.50
2019-01-08T10:24:47.094Z,97.50
2019-01-08T10:27:18.495Z,97.40
2019-01-08T10:29:50.665Z,97.70
2019-01-08T10:32:21.274Z,98.00
2019-01-08T10:34:51.771Z,98.00
2019-01-08T10:37:22.292Z,98.00
2019-01-08T10:39:52.777Z,97.90
2019-01-08T10:42:23.307Z,97.70
2019-01-08T10:44:53.808Z,97.60
2019-01-08T10:47:24.314Z,97.60
2019-01-08T10:49:54.794Z,97.50
2019-01-08T10:52:26.577Z,97.30
2019-01-08T10:54:57.085Z,97.30
2019-01-08T10:57:27.623Z,97.40
2019-01-08T10:59:58.136Z,97.60
2019-01-08T11:02:29.925Z,97.60
2019-01-08T11:05:00.451Z,97.30
2019-01-08T11:07:30.976Z,97.40
2019-01-08T11:10:01.497Z,97.60
2019-01-08T11:12:31.993Z,98.20
2019-01-08T11:15:02.592Z,98.30
2019-01-08T11:17:33.676Z,98.10
2019-01-08T11:20:05.187Z,98.10
2019-01-08T11:22:35.982Z,98.10
2019-01-08T11:25:07.321Z,98.20
2019-01-08T11:27:37.831Z,98.20
2019-01-08T11:30:09.274Z,98.10
2019-01-08T11:32:39.787Z,97.80
2019-01-08T11:35:10.445Z,97.70
2019-01-08T11:37:40.932Z,97.30
2019-01-08T11:40:11.457Z,96.90
2019-01-08T11:42:41.965Z,96.80
2019-01-08T11:45:12.477Z,96.60
2019-01-08T11:47:43.000Z,96.30
2019-01-08T11:50:13.494Z,96.60
2019-01-08T11:52:44.086Z,96.50
2019-01-08T11:55:14.627Z,96.80
2019-01-08T11:57:45.110Z,96.90
2019-01-08T12:00:17.386Z,96.50
2019-01-08T12:02:48.169Z,96.30
2019-01-08T12:05:18.774Z,96.10
2019-01-08T12:07:49.365Z,96.00
2019-01-08T12:10:19.890Z,95.90
2019-01-08T12:12:50.375Z,95.80
2019-01-08T12:15:20.915Z,95.90
2019-01-08T12:17:51.427Z,95.90
2019-01-08T12:20:21.936Z,97.50
2019-01-08T12:22:52.428Z,97.50
2019-01-08T12:25:22.950Z,97.50
2019-01-08T12:27:53.423Z,97.80
2019-01-08T12:30:23.936Z,96.70
2019-01-08T12:32:54.430Z,96.50
2019-01-08T12:35:24.961Z,96.60
2019-01-08T12:37:55.442Z,96.60
2019-01-08T12:40:25.977Z,96.50
2019-01-08T12:42:56.453Z,96.40
2019-01-08T12:45:26.965Z,96.40
2019-01-08T12:47:57.457Z,96.50
2019-01-08T12:50:29.943Z,96.70
2019-01-08T12:53:00.458Z,96.70
2019-01-08T12:55:30.954Z,96.50
2019-01-08T12:58:01.478Z,96.10
2019-01-08T13:00:32.164Z,95.70
2019-01-08T13:03:02.645Z,95.90
2019-01-08T13:05:33.166Z,96.00
2019-01-08T13:08:05.066Z,96.00
2019-01-08T13:10:35.579Z,96.00
2019-01-08T13:13:06.056Z,96.10
2019-01-08T13:15:36.657Z,96.10
2019-01-08T13:18:07.176Z,95.90
2019-01-08T13:20:38.357Z,96.10
2019-01-08T13:23:08.830Z,96.30
2019-01-08T13:25:39.357Z,96.50
2019-01-08T13:28:09.832Z,96.60
2019-01-08T13:30:40.368Z,96.80
2019-01-08T13:33:10.855Z,97.00
2019-01-08T13:35:41.410Z,97.00
2019-01-08T13:38:13.434Z,96.90
2019-01-08T13:40:43.973Z,97.50
2019-01-08T13:43:14.460Z,97.00
2019-01-08T13:45:45.002Z,97.10
2019-01-08T13:48:34.861Z,97.20
2019-01-08T13:51:05.453Z,97.30
2019-01-08T13:53:35.936Z,97.30
2019-01-08T13:56:06.445Z,97.30
2019-01-08T13:58:36.973Z,97.20
2019-01-08T14:01:07.460Z,97.30
2019-01-08T14:03:37.997Z,97.40
2019-01-08T14:06:08.535Z,97.50
2019-01-08T14:08:39.057Z,97.50
2019-01-08T14:11:09.619Z,97.50
2019-01-08T14:13:40.154Z,97.70
2019-01-08T14:16:10.678Z,97.90
2019-01-08T14:18:42.034Z,98.10
2019-01-08T14:21:12.561Z,97.90
2019-01-08T14:23:43.049Z,97.90
2019-01-08T14:26:13.558Z,98.10
2019-01-08T14:28:44.070Z,98.10
2019-01-08T14:31:14.666Z,98.20
2019-01-08T14:33:45.174Z,98.20
2019-01-08T14:36:16.453Z,98.40
2019-01-08T14:38:46.955Z,98.70
2019-01-08T14:41:17.516Z,98.40
2019-01-08T14:43:48.044Z,98.30
2019-01-08T14:46:18.562Z,98.30
2019-01-08T14:48:49.049Z,98.30
2019-01-08T14:51:19.593Z,98.40
2019-01-08T14:53:50.159Z,98.50
2019-01-08T14:56:20.679Z,98.90
2019-01-08T14:58:51.165Z,98.60
2019-01-08T15:01:21.685Z,98.70
2019-01-08T15:03:52.204Z,98.50
2019-01-08T15:06:22.708Z,98.70
2019-01-08T15:08:56.373Z,98.90
2019-01-08T15:11:25.422Z,99.00
2019-01-08T15:13:55.901Z,99.10
2019-01-08T15:16:26.483Z,99.10
2019-01-08T15:18:56.970Z,99.20
2019-01-08T15:21:27.490Z,99.20
2019-01-08T15:23:57.997Z,99.30
2019-01-08T15:26:28.489Z,99.40
2019-01-08T15:28:59.019Z,99.50
2019-01-08T15:31:29.642Z,99.50
2019-01-08T15:34:00.148Z,99.60
2019-01-08T15:36:30.772Z,99.70
2019-01-08T15:39:01.265Z,99.90
2019-01-08T15:41:31.784Z,99.90
2019-01-08T15:44:02.311Z,99.90
2019-01-08T15:46:32.825Z,99.90
2019-01-08T15:49:03.345Z,99.90
2019-01-08T15:51:33.946Z,99.90
2019-01-08T15:54:04.459Z,99.90
2019-01-08T15:56:35.973Z,99.90
2019-01-08T15:59:06.578Z,99.90
2019-01-08T16:01:37.155Z,99.90
2019-01-08T16:04:07.667Z,99.90
2019-01-08T16:06:39.612Z,99.90
2019-01-08T16:09:11.735Z,99.90
2019-01-08T16:11:42.233Z,99.90
2019-01-08T16:14:12.844Z,99.90
2019-01-08T16:16:43.347Z,99.90
2019-01-08T16:19:13.872Z,99.90
2019-01-08T16:21:44.411Z,99.90
2019-01-08T16:24:14.935Z,99.90
2019-01-08T16:26:45.810Z,99.90
2019-01-08T16:29:16.654Z,99.90
2019-01-08T16:31:47.223Z,99.90
2019-01-08T16:34:17.741Z,99.90
2019-01-08T16:36:48.467Z,99.90
2019-01-08T16:39:19.196Z,99.90
2019-01-08T16:41:49.688Z,99.90
2019-01-08T16:44:20.207Z,99.90
2019-01-08T16:46:50.726Z,99.90
2019-01-08T16:49:21.259Z,99.90
2019-01-08T16:51:51.763Z,99.90
2019-01-08T16:54:22.315Z,99.90
2019-01-08T16:56:54.204Z,99.90
2019-01-08T16:59:24.748Z,99.90
2019-01-08T17:01:55.340Z,99.90
2019-01-08T17:04:25.903Z,99.90
2019-01-08T17:06:56.442Z,99.90
2019-01-08T17:09:26.959Z,99.90
2019-01-08T17:12:00.251Z,99.90
2019-01-08T17:14:30.812Z,99.90
2019-01-08T17:17:01.409Z,99.90
2019-01-08T17:19:31.896Z,99.90
2019-01-08T17:22:02.451Z,99.90
2019-01-08T17:24:32.998Z,99.90
2019-01-08T17:27:03.531Z,99.90
2019-01-08T17:29:34.107Z,99.90
2019-01-08T17:32:04.731Z,99.90
2019-01-08T17:34:36.803Z,99.90
2019-01-08T17:37:07.373Z,99.90
2019-01-08T17:39:37.866Z,99.90
2019-01-08T17:42:08.387Z,99.90
2019-01-08T17:44:38.915Z,99.90
2019-01-08T17:47:09.429Z,99.90
2019-01-08T17:49:39.990Z,99.90
2019-01-08T17:52:10.474Z,99.90
2019-01-08T17:54:41.001Z,99.90
2019-01-08T17:57:11.503Z,99.90
2019-01-08T17:59:42.034Z,99.90
2019-01-08T18:02:13.089Z,99.90
2019-01-08T18:04:43.625Z,99.90
2019-01-08T18:07:14.174Z,99.90
2019-01-08T18:09:44.699Z,99.90
2019-01-08T18:12:15.272Z,99.90
2019-01-08T18:14:45.817Z,99.90
2019-01-08T18:17:16.390Z,99.90
2019-01-08T18:19:46.908Z,99.90
2019-01-08T18:22:18.110Z,99.90
2019-01-08T18:24:48.631Z,99.90
2019-01-08T18:27:19.161Z,99.90
2019-01-08T18:29:49.691Z,99.90
2019-01-08T18:32:20.234Z,99.90
2019-01-08T18:34:50.740Z,99.70
2019-01-08T18:37:21.560Z,99.60
2019-01-08T18:39:52.128Z,99.60
2019-01-08T18:42:22.659Z,99.70
2019-01-08T18:44:53.255Z,99.70
2019-01-08T18:47:23.933Z,99.80
2019-01-08T18:49:54.450Z,99.80
2019-01-08T18:52:24.989Z,99.90
2019-01-08T18:54:56.760Z,99.90
2019-01-08T18:57:27.319Z,99.90
2019-01-08T18:59:57.814Z,99.90
2019-01-08T19:02:28.333Z,99.90
2019-01-08T19:04:58.902Z,99.90
2019-01-08T19:07:29.429Z,99.90
2019-01-08T19:10:07.787Z,99.90
2019-01-08T19:12:38.368Z,99.90
2019-01-08T19:15:09.020Z,99.90
2019-01-08T19:17:39.498Z,99.90
2019-01-08T19:20:12.827Z,99.90
2019-01-08T19:22:43.325Z,99.90
2019-01-08T19:25:14.069Z,99.90
2019-01-08T19:27:46.205Z,99.90
2019-01-08T19:30:16.737Z,99.90
2019-01-08T19:32:47.293Z,99.90
2019-01-08T19:35:17.772Z,99.90
2019-01-08T19:37:48.320Z,99.90
2019-01-08T19:40:18.808Z,99.90
2019-01-08T19:42:49.330Z,99.90
2019-01-08T19:45:19.919Z,99.90
2019-01-08T19:47:50.525Z,99.90
2019-01-08T19:50:21.014Z,99.90
2019-01-08T19:52:54.420Z,99.90
2019-01-08T19:55:27.679Z,99.90
2019-01-08T19:57:58.245Z,99.90
2019-01-08T20:00:34.697Z,99.90
2019-01-08T20:03:04.896Z,99.90
2019-01-08T20:05:35.410Z,99.90
2019-01-08T20:08:05.901Z,99.90
2019-01-08T20:10:36.500Z,99.90
2019-01-08T20:13:06.990Z,99.90
2019-01-08T20:15:37.517Z,99.90
2019-01-08T20:18:08.031Z,99.90
2019-01-08T20:20:38.583Z,99.90
2019-01-08T20:23:09.091Z,99.90
2019-01-08T20:25:41.532Z,99.90
2019-01-08T20:28:12.000Z,99.90
2019-01-08T20:30:42.517Z,99.90
2019-01-08T20:33:13.043Z,99.90
2019-01-08T20:35:43.589Z,99.90
2019-01-08T20:38:14.677Z,99.90
2019-01-08T20:40:46.012Z,99.90
2019-01-08T20:43:16.529Z,99.90
2019-01-08T20:45:47.016Z,99.90
2019-01-08T20:48:17.554Z,99.90
2019-01-08T20:50:48.049Z,99.90
2019-01-08T20:53:18.578Z,99.90
2019-01-08T20:55:49.113Z,99.90
2019-01-08T20:58:27.582Z,99.90
2019-01-08T21:00:53.203Z,99.90
2019-01-08T21:03:23.754Z,99.90
2019-01-08T21:05:54.294Z,99.90
2019-01-08T21:08:24.782Z,99.90
2019-01-08T21:10:55.296Z,99.90
2019-01-08T21:13:25.876Z,99.90
2019-01-08T21:15:56.742Z,99.90
2019-01-08T21:18:27.252Z,99.90
2019-01-08T21:20:57.816Z,99.90
2019-01-08T21:23:28.430Z,99.90
2019-01-08T21:25:59.004Z,99.90
2019-01-08T21:28:31.366Z,99.90
2019-01-08T21:31:03.379Z,99.90
2019-01-08T21:33:33.919Z,99.90
2019-01-08T21:36:04.482Z,99.90
2019-01-08T21:38:35.003Z,99.90
2019-01-08T21:41:05.511Z,99.90
2019-01-08T21:43:36.026Z,99.90
2019-01-08T21:46:06.556Z,99.90
2019-01-08T21:48:37.086Z,99.90
2019-01-08T21:51:07.582Z,99.90
2019-01-08T21:53:38.085Z,99.90
2019-01-08T21:56:08.584Z,99.90
2019-01-08T21:58:40.025Z,99.90
2019-01-08T22:01:10.530Z,99.90
2019-01-08T22:03:41.052Z,99.90
2019-01-08T22:06:11.541Z,99.90
2019-01-08T22:08:42.145Z,99.90
2019-01-08T22:11:12.677Z,99.90
2019-01-08T22:13:43.247Z,99.90
2019-01-08T22:16:13.770Z,99.90
2019-01-08T22:18:44.315Z,99.90
2019-01-08T22:21:14.838Z,99.90
2019-01-08T22:23:45.352Z,99.90
2019-01-08T22:26:16.524Z,99.90
2019-01-08T22:28:47.095Z,99.90
2019-01-08T22:31:17.616Z,99.90
2019-01-08T22:33:48.109Z,99.90
2019-01-08T22:36:18.630Z,99.90
2019-01-08T22:38:50.515Z,99.90
2019-01-08T22:41:21.322Z,99.90
2019-01-08T22:43:51.811Z,99.90
2019-01-08T22:46:22.331Z,99.90
2019-01-08T22:48:52.826Z,99.90
2019-01-08T22:51:23.346Z,99.90
2019-01-08T22:53:53.860Z,99.90
2019-01-08T22:56:24.346Z,99.90
2019-01-08T22:58:54.878Z,99.90
2019-01-08T23:01:29.833Z,99.90
2019-01-08T23:04:01.221Z,99.90
2019-01-08T23:06:32.734Z,99.90
2019-01-08T23:09:04.190Z,99.90
2019-01-08T23:11:34.711Z,99.90
2019-01-08T23:14:05.337Z,99.90
2019-01-08T23:16:36.766Z,99.90
2019-01-08T23:19:07.628Z,99.90
2019-01-08T23:21:40.108Z,99.90
2019-01-08T23:24:10.874Z,99.90
2019-01-08T23:26:41.351Z,99.90
2019-01-08T23:29:11.869Z,99.90
2019-01-08T23:31:42.383Z,99.90
2019-01-08T23:34:12.973Z,99.90
2019-01-08T23:36:43.495Z,99.90
2019-01-08T23:39:13.989Z,99.90
2019-01-08T23:41:44.492Z,99.90
2019-01-08T23:44:15.085Z,99.90
2019-01-08T23:46:45.584Z,99.90
2019-01-08T23:49:16.090Z,99.90
2019-01-08T23:51:46.605Z,99.90
2019-01-08T23:54:19.468Z,99.90
2019-01-08T23:56:51.268Z,99.90
2019-01-08T23:59:21.788Z,99.90
